createdAt,value
2017-02-03T00:00:28.556Z,0
2017-02-03T00:01:28.543Z,0
2017-02-03T00:02:28.529Z,0
2017-02-03T00:03:28.116Z,0
2017-02-03T00:04:28.497Z,0
2017-02-03T00:05:28.087Z,0
2017-02-03T00:06:28.476Z,0
2017-02-03T00:07:28.066Z,0
2017-02-03T00:08:28.442Z,0
2017-02-03T00:09:28.429Z,0
2017-02-03T00:10:28.423Z,0
2017-02-03T00:11:28.406Z,0
2017-02-03T00:12:28.390Z,0
2017-02-03T00:13:28.378Z,0
2017-02-03T00:14:28.367Z,0
2017-02-03T00:15:28.377Z,0
2017-02-03T00:16:28.338Z,0
2017-02-03T00:17:27.923Z,0
2017-02-03T00:18:28.304Z,0
2017-02-03T00:19:27.893Z,0
2017-02-03T00:20:28.280Z,0
2017-02-03T00:21:28.267Z,0
2017-02-03T00:22:28.251Z,0
2017-02-03T00:23:28.236Z,0
2017-02-03T00:24:28.228Z,0
2017-02-03T00:25:28.211Z,0
2017-02-03T00:26:27.805Z,0
2017-02-03T00:27:28.180Z,0
2017-02-03T00:28:28.175Z,0
2017-02-03T00:29:28.157Z,0
2017-02-03T00:30:28.142Z,0
2017-02-03T00:31:28.130Z,0
2017-02-03T00:32:28.115Z,0
2017-02-03T00:33:28.102Z,0
2017-02-03T00:34:28.083Z,0
2017-02-03T00:35:28.079Z,0
2017-02-03T00:36:27.266Z,0
2017-02-03T00:37:28.057Z,0
2017-02-03T00:38:28.028Z,0
2017-02-03T00:39:28.024Z,0
2017-02-03T00:40:28.007Z,0
2017-02-03T00:41:27.593Z,0
2017-02-03T00:42:27.981Z,0
2017-02-03T00:43:27.960Z,0
2017-02-03T00:44:27.550Z,0
2017-02-03T00:45:27.938Z,0
2017-02-03T00:46:27.536Z,0
2017-02-03T00:47:27.911Z,0
2017-02-03T00:48:27.899Z,0
2017-02-03T00:49:27.882Z,0
2017-02-03T00:50:27.473Z,0
2017-02-03T00:51:27.855Z,0
2017-02-03T00:52:27.449Z,0
2017-02-03T00:53:27.830Z,0
2017-02-03T00:54:27.817Z,0
2017-02-03T00:55:27.801Z,0
2017-02-03T00:56:27.404Z,0
2017-02-03T00:57:27.775Z,0
2017-02-03T00:58:27.761Z,0
2017-02-03T00:59:27.746Z,0
2017-02-03T01:00:27.736Z,0
2017-02-03T01:01:27.719Z,0
2017-02-03T01:02:27.705Z,0
2017-02-03T01:03:27.693Z,0
2017-02-03T01:04:27.282Z,0
2017-02-03T01:05:27.663Z,0
2017-02-03T01:06:27.653Z,0
2017-02-03T01:07:27.636Z,0
2017-02-03T01:08:27.623Z,0
2017-02-03T01:09:27.619Z,0
2017-02-03T01:10:27.634Z,0
2017-02-03T01:11:27.612Z,0
2017-02-03T01:12:27.571Z,0
2017-02-03T01:13:27.160Z,0
2017-02-03T01:14:27.546Z,0
2017-02-03T01:15:27.529Z,0
2017-02-03T01:16:27.511Z,0
2017-02-03T01:17:27.499Z,0
2017-02-03T01:18:27.492Z,0
2017-02-03T01:19:27.477Z,0
2017-02-03T01:20:27.462Z,0
2017-02-03T01:21:27.047Z,0
2017-02-03T01:22:27.439Z,0
2017-02-03T01:23:27.018Z,0
2017-02-03T01:24:27.407Z,0
2017-02-03T01:25:26.999Z,0
2017-02-03T01:26:26.587Z,0
2017-02-03T01:27:27.366Z,0
2017-02-03T01:28:27.350Z,0
2017-02-03T01:29:27.340Z,0
2017-02-03T01:30:26.930Z,0
2017-02-03T01:31:27.311Z,0
2017-02-03T01:32:27.315Z,0
2017-02-03T01:33:27.283Z,0
2017-02-03T01:34:27.272Z,0
2017-02-03T01:35:27.259Z,0
2017-02-03T01:36:27.249Z,0
2017-02-03T01:37:27.231Z,0
2017-02-03T01:38:27.212Z,0
2017-02-03T01:39:27.199Z,0
2017-02-03T01:40:26.790Z,0
2017-02-03T01:41:26.778Z,0
2017-02-03T01:42:26.760Z,0
2017-02-03T01:43:26.749Z,0
2017-02-03T01:44:27.137Z,0
2017-02-03T01:45:26.721Z,0
2017-02-03T01:46:27.105Z,0
2017-02-03T01:47:27.090Z,0
2017-02-03T01:48:26.679Z,0
2017-02-03T01:49:27.064Z,0
2017-02-03T01:50:27.056Z,0
2017-02-03T01:51:27.040Z,0
2017-02-03T01:52:27.025Z,0
2017-02-03T01:53:27.013Z,0
2017-02-03T01:54:26.992Z,0
2017-02-03T01:55:26.977Z,0
2017-02-03T01:56:26.969Z,0
2017-02-03T01:57:26.958Z,0
2017-02-03T01:58:26.938Z,0
2017-02-03T01:59:26.531Z,0
2017-02-03T02:00:26.921Z,0
2017-02-03T02:01:26.903Z,0
2017-02-03T02:02:26.898Z,0
2017-02-03T02:03:26.479Z,0
2017-02-03T02:04:26.862Z,0
2017-02-03T02:05:26.843Z,0
2017-02-03T02:06:26.831Z,0
2017-02-03T02:07:26.821Z,0
2017-02-03T02:08:26.750Z,0
2017-02-03T02:09:26.792Z,0
2017-02-03T02:10:26.783Z,0
2017-02-03T02:11:26.766Z,0
2017-02-03T02:12:26.357Z,0
2017-02-03T02:13:26.340Z,0
2017-02-03T02:14:26.730Z,0
2017-02-03T02:15:26.709Z,0
2017-02-03T02:16:26.698Z,0
2017-02-03T02:17:26.732Z,0
2017-02-03T02:18:26.673Z,0
2017-02-03T02:19:26.656Z,0
2017-02-03T02:20:26.649Z,0
2017-02-03T02:21:26.630Z,0
2017-02-03T02:22:26.609Z,0
2017-02-03T02:23:26.599Z,0
2017-02-03T02:24:26.594Z,0
2017-02-03T02:25:26.579Z,0
2017-02-03T02:26:26.561Z,0
2017-02-03T02:27:26.553Z,0
2017-02-03T02:28:26.536Z,0
2017-02-03T02:29:26.124Z,0
2017-02-03T02:30:26.505Z,0
2017-02-03T02:31:26.489Z,0
2017-02-03T02:32:26.507Z,0
2017-02-03T02:33:26.463Z,0
2017-02-03T02:34:26.451Z,0
2017-02-03T02:35:26.436Z,0
2017-02-03T02:36:26.426Z,0
2017-02-03T02:37:26.410Z,0
2017-02-03T02:38:26.402Z,0
2017-02-03T02:39:26.379Z,0
2017-02-03T02:40:26.364Z,0
2017-02-03T02:41:26.355Z,0
2017-02-03T02:42:26.340Z,0
2017-02-03T02:43:26.332Z,0
2017-02-03T02:44:26.309Z,0
2017-02-03T02:45:26.297Z,0
2017-02-03T02:46:26.282Z,0
2017-02-03T02:47:26.268Z,0
2017-02-03T02:48:25.860Z,0
2017-02-03T02:49:26.243Z,0
2017-02-03T02:50:26.263Z,0
2017-02-03T02:51:26.216Z,0
2017-02-03T02:52:26.201Z,0
2017-02-03T02:53:26.194Z,0
2017-02-03T02:54:26.171Z,0
2017-02-03T02:55:25.762Z,0
2017-02-03T02:56:26.147Z,0
2017-02-03T02:57:26.137Z,0
2017-02-03T02:58:26.122Z,0
2017-02-03T02:59:26.104Z,0
2017-02-03T03:00:26.093Z,0
2017-02-03T03:01:26.078Z,0
2017-02-03T03:02:26.063Z,0
2017-02-03T03:03:26.053Z,0
2017-02-03T03:04:26.033Z,0
2017-02-03T03:05:26.023Z,0
2017-02-03T03:06:26.012Z,0
2017-02-03T03:07:25.999Z,0
2017-02-03T03:08:26.001Z,0
2017-02-03T03:09:26.004Z,0
2017-02-03T03:10:25.961Z,0
2017-02-03T03:11:25.936Z,0
2017-02-03T03:12:25.929Z,0
2017-02-03T03:13:25.913Z,0
2017-02-03T03:14:25.540Z,0
2017-02-03T03:15:25.888Z,0
2017-02-03T03:16:25.875Z,0
2017-02-03T03:17:25.861Z,0
2017-02-03T03:18:25.845Z,0
2017-02-03T03:19:25.866Z,0
2017-02-03T03:20:25.820Z,0
2017-02-03T03:21:25.811Z,0
2017-02-03T03:22:25.790Z,0
2017-02-03T03:23:25.774Z,0
2017-02-03T03:24:25.762Z,0
2017-02-03T03:25:25.750Z,0
2017-02-03T03:26:25.744Z,0
2017-02-03T03:27:25.721Z,0
2017-02-03T03:28:25.708Z,0
2017-02-03T03:29:25.697Z,0
2017-02-03T03:30:25.682Z,0
2017-02-03T03:31:25.275Z,0
2017-02-03T03:32:25.650Z,0
2017-02-03T03:33:25.643Z,0
2017-02-03T03:34:25.628Z,0
2017-02-03T03:35:25.613Z,0
2017-02-03T03:36:25.599Z,0
2017-02-03T03:37:25.588Z,0
2017-02-03T03:38:25.573Z,0
2017-02-03T03:39:25.559Z,0
2017-02-03T03:40:25.545Z,0
2017-02-03T03:41:25.534Z,0
2017-02-03T03:42:25.520Z,0
2017-02-03T03:43:25.506Z,0
2017-02-03T03:44:25.493Z,0
2017-02-03T03:45:25.479Z,0
2017-02-03T03:46:25.068Z,0
2017-02-03T03:47:25.447Z,0
2017-02-03T03:48:25.441Z,0
2017-02-03T03:49:25.426Z,0
2017-02-03T03:50:25.018Z,0
2017-02-03T03:51:25.400Z,0
2017-02-03T03:52:25.385Z,0
2017-02-03T03:53:25.388Z,0
2017-02-03T03:54:25.355Z,0
2017-02-03T03:55:25.338Z,0
2017-02-03T03:56:25.328Z,0
2017-02-03T03:57:25.349Z,0
2017-02-03T03:58:25.328Z,0
2017-02-03T03:59:24.890Z,0
2017-02-03T04:00:24.874Z,0
2017-02-03T04:01:25.267Z,0
2017-02-03T04:02:25.249Z,0
2017-02-03T04:03:25.249Z,0
2017-02-03T04:04:25.219Z,0
2017-02-03T04:05:24.803Z,0
2017-02-03T04:06:24.799Z,0
2017-02-03T04:07:24.782Z,0
2017-02-03T04:08:25.161Z,0
2017-02-03T04:09:25.147Z,0
2017-02-03T04:10:24.742Z,0
2017-02-03T04:11:24.717Z,0
2017-02-03T04:12:24.713Z,0
2017-02-03T04:13:25.095Z,0
2017-02-03T04:14:25.078Z,0
2017-02-03T04:15:25.067Z,0
2017-02-03T04:16:25.053Z,0
2017-02-03T04:17:25.044Z,0
2017-02-03T04:18:25.023Z,0
2017-02-03T04:19:25.006Z,0
2017-02-03T04:20:24.996Z,0
2017-02-03T04:21:24.974Z,0
2017-02-03T04:22:24.578Z,0
2017-02-03T04:23:24.980Z,0
2017-02-03T04:24:24.544Z,0
2017-02-03T04:25:24.924Z,0
2017-02-03T04:26:24.951Z,0
2017-02-03T04:27:24.912Z,0
2017-02-03T04:28:24.888Z,0
2017-02-03T04:29:24.472Z,0
2017-02-03T04:30:24.861Z,0
2017-02-03T04:31:24.871Z,0
2017-02-03T04:32:24.840Z,0
2017-02-03T04:33:24.815Z,0
2017-02-03T04:34:24.829Z,0
2017-02-03T04:35:24.791Z,0
2017-02-03T04:36:24.775Z,0
2017-02-03T04:37:24.763Z,0
2017-02-03T04:38:24.745Z,0
2017-02-03T04:39:24.770Z,0
2017-02-03T04:40:24.722Z,0
2017-02-03T04:41:24.704Z,0
2017-02-03T04:42:24.693Z,0
2017-02-03T04:43:24.708Z,0
2017-02-03T04:44:24.665Z,0
2017-02-03T04:45:24.659Z,0
2017-02-03T04:46:24.639Z,0
2017-02-03T04:47:24.628Z,0
2017-02-03T04:48:24.615Z,0
2017-02-03T04:49:24.596Z,0
2017-02-03T04:50:24.588Z,0
2017-02-03T04:51:24.571Z,0
2017-02-03T04:52:24.552Z,0
2017-02-03T04:53:24.580Z,0
2017-02-03T04:54:24.528Z,0
2017-02-03T04:55:24.512Z,0
2017-02-03T04:56:24.499Z,0
2017-02-03T04:57:24.686Z,0
2017-02-03T04:58:24.464Z,0
2017-02-03T04:59:24.459Z,0
2017-02-03T05:00:24.449Z,0
2017-02-03T05:01:24.427Z,0
2017-02-03T05:02:24.411Z,0
2017-02-03T05:03:24.397Z,0
2017-02-03T05:04:24.386Z,0
2017-02-03T05:05:24.369Z,0
2017-02-03T05:06:24.353Z,0
2017-02-03T05:07:24.342Z,0
2017-02-03T05:08:24.359Z,0
2017-02-03T05:09:24.320Z,0
2017-02-03T05:10:24.297Z,0
2017-02-03T05:11:24.286Z,0
2017-02-03T05:12:24.275Z,0
2017-02-03T05:13:24.262Z,0
2017-02-03T05:14:24.243Z,0
2017-02-03T05:15:24.234Z,0
2017-02-03T05:16:23.820Z,0
2017-02-03T05:17:24.207Z,0
2017-02-03T05:18:24.192Z,0
2017-02-03T05:19:23.776Z,0
2017-02-03T05:20:24.162Z,0
2017-02-03T05:21:24.145Z,0
2017-02-03T05:22:24.130Z,0
2017-02-03T05:23:24.119Z,0
2017-02-03T05:24:24.109Z,0
2017-02-03T05:25:24.087Z,0
2017-02-03T05:26:24.076Z,0
2017-02-03T05:27:24.064Z,0
2017-02-03T05:28:24.049Z,0
2017-02-03T05:29:24.045Z,0
2017-02-03T05:30:24.026Z,0
2017-02-03T05:31:24.006Z,0
2017-02-03T05:32:23.994Z,0
2017-02-03T05:33:23.977Z,0
2017-02-03T05:34:23.568Z,0
2017-02-03T05:35:23.951Z,0
2017-02-03T05:36:23.940Z,0
2017-02-03T05:37:23.919Z,0
2017-02-03T05:38:23.908Z,0
2017-02-03T05:39:23.498Z,0
2017-02-03T05:40:23.483Z,0
2017-02-03T05:41:23.870Z,0
2017-02-03T05:42:23.463Z,0
2017-02-03T05:43:23.439Z,0
2017-02-03T05:44:23.824Z,0
2017-02-03T05:45:23.413Z,0
2017-02-03T05:46:23.804Z,0
2017-02-03T05:47:23.389Z,0
2017-02-03T05:48:23.772Z,0
2017-02-03T05:49:23.754Z,0
2017-02-03T05:50:23.744Z,0
2017-02-03T05:51:23.729Z,0
2017-02-03T05:52:23.713Z,0
2017-02-03T05:53:23.696Z,0
2017-02-03T05:54:23.287Z,0
2017-02-03T05:55:23.674Z,0
2017-02-03T05:56:23.664Z,0
2017-02-03T05:57:23.644Z,0
2017-02-03T05:58:23.233Z,0
2017-02-03T05:59:23.617Z,0
2017-02-03T06:00:23.606Z,0
2017-02-03T06:01:23.590Z,0
2017-02-03T06:02:23.573Z,0
2017-02-03T06:03:23.563Z,0
2017-02-03T06:04:23.552Z,0
2017-02-03T06:05:23.526Z,0
2017-02-03T06:06:23.520Z,0
2017-02-03T06:07:22.714Z,0
2017-02-03T06:08:23.490Z,0
2017-02-03T06:09:23.479Z,0
2017-02-03T06:10:23.472Z,0
2017-02-03T06:11:23.456Z,0
2017-02-03T06:12:23.437Z,4
2017-02-03T06:13:23.429Z,4
2017-02-03T06:14:23.410Z,0
2017-02-03T06:15:23.393Z,4
2017-02-03T06:16:23.395Z,4
2017-02-03T06:17:23.377Z,4
2017-02-03T06:18:23.399Z,4
2017-02-03T06:19:23.344Z,4
2017-02-03T06:20:23.330Z,8
2017-02-03T06:21:23.317Z,8
2017-02-03T06:22:23.304Z,12
2017-02-03T06:23:23.290Z,16
2017-02-03T06:24:23.271Z,16
2017-02-03T06:25:23.263Z,20
2017-02-03T06:26:23.287Z,24
2017-02-03T06:27:23.237Z,24
2017-02-03T06:28:23.232Z,32
2017-02-03T06:29:23.205Z,36
2017-02-03T06:30:23.197Z,44
2017-02-03T06:31:23.180Z,44
2017-02-03T06:32:23.168Z,52
2017-02-03T06:33:23.156Z,60
2017-02-03T06:34:23.138Z,68
2017-02-03T06:35:23.131Z,72
2017-02-03T06:36:23.160Z,84
2017-02-03T06:37:23.128Z,96
2017-02-03T06:38:23.086Z,108
2017-02-03T06:39:23.071Z,124
2017-02-03T06:40:23.056Z,144
2017-02-03T06:41:23.103Z,160
2017-02-03T06:42:23.027Z,184
2017-02-03T06:43:23.014Z,200
2017-02-03T06:44:23.000Z,216
2017-02-03T06:45:22.987Z,240
2017-02-03T06:46:22.977Z,268
2017-02-03T06:47:22.991Z,300
2017-02-03T06:48:22.947Z,336
2017-02-03T06:49:22.936Z,372
2017-02-03T06:50:22.951Z,404
2017-02-03T06:51:22.912Z,440
2017-02-03T06:52:22.887Z,480
2017-02-03T06:53:22.880Z,516
2017-02-03T06:54:22.868Z,556
2017-02-03T06:55:22.852Z,596
2017-02-03T06:56:22.830Z,636
2017-02-03T06:57:22.818Z,680
2017-02-03T06:58:22.810Z,724
2017-02-03T06:59:22.795Z,768
2017-02-03T07:00:22.776Z,808
2017-02-03T07:01:22.771Z,856
2017-02-03T07:02:22.751Z,896
2017-02-03T07:03:22.745Z,932
2017-02-03T07:04:22.721Z,964
2017-02-03T07:05:22.711Z,1004
2017-02-03T07:06:22.700Z,1036
2017-02-03T07:07:22.691Z,1068
2017-02-03T07:08:22.713Z,1104
2017-02-03T07:09:22.660Z,1132
2017-02-03T07:10:22.649Z,1160
2017-02-03T07:11:22.629Z,1184
2017-02-03T07:12:22.615Z,1204
2017-02-03T07:13:22.599Z,1232
2017-02-03T07:14:22.596Z,1272
2017-02-03T07:15:22.578Z,1308
2017-02-03T07:16:22.560Z,1336
2017-02-03T07:17:22.550Z,1364
2017-02-03T07:18:22.530Z,1388
2017-02-03T07:19:22.520Z,1404
2017-02-03T07:20:22.505Z,1424
2017-02-03T07:21:22.531Z,1444
2017-02-03T07:22:22.478Z,1464
2017-02-03T07:23:22.537Z,1488
2017-02-03T07:24:22.454Z,1508
2017-02-03T07:25:22.448Z,1528
2017-02-03T07:26:22.419Z,1540
2017-02-03T07:27:22.075Z,1556
2017-02-03T07:28:22.004Z,1576
2017-02-03T07:29:22.390Z,1616
2017-02-03T07:30:22.554Z,1660
2017-02-03T07:31:22.354Z,1720
2017-02-03T07:32:22.572Z,1792
2017-02-03T07:33:22.334Z,1876
2017-02-03T07:34:22.320Z,1944
2017-02-03T07:35:22.303Z,2004
2017-02-03T07:36:22.294Z,2044
2017-02-03T07:37:23.008Z,2084
2017-02-03T07:38:22.264Z,2112
2017-02-03T07:39:22.249Z,2152
2017-02-03T07:40:22.236Z,2184
2017-02-03T07:41:22.228Z,2228
2017-02-03T07:42:22.210Z,2276
2017-02-03T07:43:22.197Z,2316
2017-02-03T07:44:21.785Z,2336
2017-02-03T07:45:22.176Z,2372
2017-02-03T07:46:21.768Z,2416
2017-02-03T07:47:22.173Z,2452
2017-02-03T07:48:21.732Z,2480
2017-02-03T07:49:22.129Z,2496
2017-02-03T07:50:21.702Z,2512
2017-02-03T07:51:22.097Z,2524
2017-02-03T07:52:22.074Z,2544
2017-02-03T07:53:22.061Z,2584
2017-02-03T07:54:21.655Z,2644
2017-02-03T07:55:22.074Z,2720
2017-02-03T07:56:22.024Z,2852
2017-02-03T07:57:22.011Z,3048
2017-02-03T07:58:21.998Z,3264
2017-02-03T07:59:21.988Z,3504
2017-02-03T08:00:21.974Z,3736
2017-02-03T08:01:21.955Z,3960
2017-02-03T08:02:21.949Z,4172
2017-02-03T08:03:21.967Z,4356
2017-02-03T08:04:21.925Z,4512
2017-02-03T08:05:21.911Z,4656
2017-02-03T08:06:21.494Z,4816
2017-02-03T08:07:21.884Z,5008
2017-02-03T08:08:21.876Z,5192
2017-02-03T08:09:21.855Z,5340
2017-02-03T08:10:21.869Z,5480
2017-02-03T08:11:21.968Z,5540
2017-02-03T08:12:21.885Z,5492
2017-02-03T08:13:21.930Z,5380
2017-02-03T08:14:21.396Z,5316
2017-02-03T08:15:21.775Z,5284
2017-02-03T08:16:21.769Z,5220
2017-02-03T08:17:21.752Z,5096
2017-02-03T08:18:21.741Z,4944
2017-02-03T08:19:21.744Z,4912
2017-02-03T08:20:21.719Z,4948
2017-02-03T08:21:21.708Z,4996
2017-02-03T08:22:21.714Z,5028
2017-02-03T08:23:21.682Z,5076
2017-02-03T08:24:21.271Z,5108
2017-02-03T08:25:21.660Z,4948
2017-02-03T08:26:21.645Z,4816
2017-02-03T08:27:21.635Z,4772
2017-02-03T08:28:20.819Z,4636
2017-02-03T08:29:21.613Z,4392
2017-02-03T08:30:21.593Z,4160
2017-02-03T08:31:21.601Z,4044
2017-02-03T08:32:21.173Z,4060
2017-02-03T08:33:21.558Z,4232
2017-02-03T08:34:21.548Z,4412
2017-02-03T08:35:21.535Z,4476
2017-02-03T08:36:21.518Z,4464
2017-02-03T08:37:21.512Z,4456
2017-02-03T08:38:21.499Z,4564
2017-02-03T08:39:21.486Z,4792
2017-02-03T08:40:21.481Z,5076
2017-02-03T08:41:21.469Z,5280
2017-02-03T08:42:21.448Z,5392
2017-02-03T08:43:21.444Z,5464
2017-02-03T08:44:21.428Z,5532
2017-02-03T08:45:21.419Z,5572
2017-02-03T08:46:21.408Z,5608
2017-02-03T08:47:21.399Z,5668
2017-02-03T08:48:21.381Z,5696
2017-02-03T08:49:21.371Z,5664
2017-02-03T08:50:21.358Z,5632
2017-02-03T08:51:21.344Z,5592
2017-02-03T08:52:21.343Z,5548
2017-02-03T08:53:20.922Z,5520
2017-02-03T08:54:21.321Z,5452
2017-02-03T08:55:21.293Z,5396
2017-02-03T08:56:21.292Z,5392
2017-02-03T08:57:21.274Z,5440
2017-02-03T08:58:21.297Z,5520
2017-02-03T08:59:21.252Z,5548
2017-02-03T09:00:21.241Z,5456
2017-02-03T09:01:21.228Z,5344
2017-02-03T09:02:21.219Z,5248
2017-02-03T09:03:21.207Z,5224
2017-02-03T09:04:21.194Z,5268
2017-02-03T09:05:21.183Z,5400
2017-02-03T09:06:21.166Z,5560
2017-02-03T09:07:20.759Z,5628
2017-02-03T09:08:21.146Z,5672
2017-02-03T09:09:21.133Z,5820
2017-02-03T09:10:21.124Z,6048
2017-02-03T09:11:21.108Z,6136
2017-02-03T09:12:21.102Z,6148
2017-02-03T09:13:20.691Z,6144
2017-02-03T09:14:21.073Z,6140
2017-02-03T09:15:20.669Z,6096
2017-02-03T09:16:20.656Z,6020
2017-02-03T09:17:21.041Z,6004
2017-02-03T09:18:20.635Z,6012
2017-02-03T09:19:20.621Z,6128
2017-02-03T09:20:20.612Z,6340
2017-02-03T09:21:20.600Z,6572
2017-02-03T09:22:20.988Z,6796
2017-02-03T09:23:20.574Z,7016
2017-02-03T09:24:20.563Z,7220
2017-02-03T09:25:20.951Z,7296
2017-02-03T09:26:20.945Z,7284
2017-02-03T09:27:20.933Z,7200
2017-02-03T09:28:20.524Z,7068
2017-02-03T09:29:20.513Z,6904
2017-02-03T09:30:20.504Z,6788
2017-02-03T09:31:20.491Z,6608
2017-02-03T09:32:20.473Z,6412
2017-02-03T09:33:20.470Z,6308
2017-02-03T09:34:20.855Z,6208
2017-02-03T09:35:20.445Z,6140
2017-02-03T09:36:20.435Z,6072
2017-02-03T09:37:20.420Z,5904
2017-02-03T09:38:20.810Z,5792
2017-02-03T09:39:20.401Z,5672
2017-02-03T09:40:20.788Z,5500
2017-02-03T09:41:20.781Z,5356
2017-02-03T09:42:20.771Z,5336
2017-02-03T09:43:20.755Z,5356
2017-02-03T09:44:20.748Z,5348
2017-02-03T09:45:20.734Z,5352
2017-02-03T09:46:20.330Z,5388
2017-02-03T09:47:20.319Z,5440
2017-02-03T09:48:20.702Z,5488
2017-02-03T09:49:20.693Z,5544
2017-02-03T09:50:20.679Z,5624
2017-02-03T09:51:20.273Z,5772
2017-02-03T09:52:20.657Z,6024
2017-02-03T09:53:20.653Z,6184
2017-02-03T09:54:20.242Z,6316
2017-02-03T09:55:20.232Z,6464
2017-02-03T09:56:20.615Z,6552
2017-02-03T09:57:20.214Z,6452
2017-02-03T09:58:20.597Z,6240
2017-02-03T09:59:20.580Z,6048
2017-02-03T10:00:20.570Z,5908
2017-02-03T10:01:20.565Z,5740
2017-02-03T10:02:20.557Z,5592
2017-02-03T10:03:20.546Z,5472
2017-02-03T10:04:20.535Z,5412
2017-02-03T10:05:20.527Z,5352
2017-02-03T10:06:20.514Z,5300
2017-02-03T10:07:20.504Z,5260
2017-02-03T10:08:20.494Z,5232
2017-02-03T10:09:20.478Z,5220
2017-02-03T10:10:20.468Z,5220
2017-02-03T10:11:20.061Z,5244
2017-02-03T10:12:19.653Z,5228
2017-02-03T10:13:20.039Z,5220
2017-02-03T10:14:20.425Z,5260
2017-02-03T10:15:20.412Z,5396
2017-02-03T10:16:20.410Z,5564
2017-02-03T10:17:20.399Z,5732
2017-02-03T10:18:20.391Z,5928
2017-02-03T10:19:19.979Z,6188
2017-02-03T10:20:20.370Z,6436
2017-02-03T10:21:20.361Z,6560
2017-02-03T10:22:20.341Z,6624
2017-02-03T10:23:20.332Z,6616
2017-02-03T10:24:20.329Z,6580
2017-02-03T10:25:20.312Z,6580
2017-02-03T10:26:20.301Z,6688
2017-02-03T10:27:20.301Z,6828
2017-02-03T10:28:20.283Z,6972
2017-02-03T10:29:20.268Z,7132
2017-02-03T10:30:20.263Z,7284
2017-02-03T10:31:20.249Z,7452
2017-02-03T10:32:20.243Z,7628
2017-02-03T10:33:20.227Z,7804
2017-02-03T10:34:19.828Z,7972
2017-02-03T10:35:20.212Z,8100
2017-02-03T10:36:19.799Z,8180
2017-02-03T10:37:20.188Z,8236
2017-02-03T10:38:20.177Z,8308
2017-02-03T10:39:20.164Z,8360
2017-02-03T10:40:20.156Z,8392
2017-02-03T10:41:19.752Z,8368
2017-02-03T10:42:19.741Z,8308
2017-02-03T10:43:20.133Z,8248
2017-02-03T10:44:20.120Z,8200
2017-02-03T10:45:20.113Z,8092
2017-02-03T10:46:20.102Z,7976
2017-02-03T10:47:20.088Z,7872
2017-02-03T10:48:20.074Z,7760
2017-02-03T10:49:20.069Z,7672
2017-02-03T10:50:19.659Z,7576
2017-02-03T10:51:19.652Z,7424
2017-02-03T10:52:19.644Z,7256
2017-02-03T10:53:20.027Z,7112
2017-02-03T10:54:20.024Z,7000
2017-02-03T10:55:20.011Z,6948
2017-02-03T10:56:19.997Z,6944
2017-02-03T10:57:19.990Z,6964
2017-02-03T10:58:19.985Z,7012
2017-02-03T10:59:19.967Z,7036
2017-02-03T11:00:19.962Z,7060
2017-02-03T11:01:19.952Z,7092
2017-02-03T11:02:19.543Z,7156
2017-02-03T11:03:19.937Z,7212
2017-02-03T11:04:19.920Z,7272
2017-02-03T11:05:19.913Z,7340
2017-02-03T11:06:19.908Z,7460
2017-02-03T11:07:19.894Z,7612
2017-02-03T11:08:19.891Z,7788
2017-02-03T11:09:19.487Z,7992
2017-02-03T11:10:19.867Z,8204
2017-02-03T11:11:19.854Z,8432
2017-02-03T11:12:19.445Z,8636
2017-02-03T11:13:19.841Z,8796
2017-02-03T11:14:19.834Z,8912
2017-02-03T11:15:19.826Z,8980
2017-02-03T11:16:19.409Z,9016
2017-02-03T11:17:19.799Z,9048
2017-02-03T11:18:19.789Z,9100
2017-02-03T11:19:19.379Z,9192
2017-02-03T11:20:19.765Z,9276
2017-02-03T11:21:19.755Z,9316
2017-02-03T11:22:19.744Z,9316
2017-02-03T11:23:19.361Z,9272
2017-02-03T11:24:19.721Z,9184
2017-02-03T11:25:19.717Z,9024
2017-02-03T11:26:19.314Z,8784
2017-02-03T11:27:19.700Z,8508
2017-02-03T11:28:19.691Z,8264
2017-02-03T11:29:19.280Z,8040
2017-02-03T11:30:18.875Z,7832
2017-02-03T11:31:19.665Z,7620
2017-02-03T11:32:19.657Z,7424
2017-02-03T11:33:19.246Z,7256
2017-02-03T11:34:19.233Z,7120
2017-02-03T11:35:19.625Z,7048
2017-02-03T11:36:19.623Z,7056
2017-02-03T11:37:19.611Z,7112
2017-02-03T11:38:19.194Z,7196
2017-02-03T11:39:19.592Z,7296
2017-02-03T11:40:19.583Z,7404
2017-02-03T11:41:19.562Z,7512
2017-02-03T11:42:19.560Z,7648
2017-02-03T11:43:19.554Z,7812
2017-02-03T11:44:19.542Z,8032
2017-02-03T11:45:19.530Z,8264
2017-02-03T11:46:19.518Z,8500
2017-02-03T11:47:19.514Z,8704
2017-02-03T11:48:19.499Z,8884
2017-02-03T11:49:19.093Z,9000
2017-02-03T11:50:19.487Z,9036
2017-02-03T11:51:19.478Z,8976
2017-02-03T11:52:19.459Z,8912
2017-02-03T11:53:19.055Z,8860
2017-02-03T11:54:19.448Z,8844
2017-02-03T11:55:19.436Z,8912
2017-02-03T11:56:19.025Z,9016
2017-02-03T11:57:19.417Z,9084
2017-02-03T11:58:19.407Z,9072
2017-02-03T11:59:19.408Z,9036
2017-02-03T12:00:19.385Z,8936
2017-02-03T12:01:19.381Z,8760
2017-02-03T12:02:19.371Z,8524
2017-02-03T12:03:19.362Z,8208
2017-02-03T12:04:18.948Z,7880
2017-02-03T12:05:19.341Z,7512
2017-02-03T12:06:19.324Z,7148
2017-02-03T12:07:19.327Z,6828
2017-02-03T12:08:19.310Z,6568
2017-02-03T12:09:19.301Z,6340
2017-02-03T12:10:19.290Z,6128
2017-02-03T12:11:19.281Z,5972
2017-02-03T12:12:19.279Z,5868
2017-02-03T12:13:19.268Z,5788
2017-02-03T12:14:19.258Z,5696
2017-02-03T12:15:19.247Z,5588
2017-02-03T12:16:19.239Z,5488
2017-02-03T12:17:19.228Z,5408
2017-02-03T12:18:18.820Z,5352
2017-02-03T12:19:18.812Z,5324
2017-02-03T12:20:19.199Z,5324
2017-02-03T12:21:19.191Z,5336
2017-02-03T12:22:19.177Z,5380
2017-02-03T12:23:19.206Z,5448
2017-02-03T12:24:18.795Z,5548
2017-02-03T12:25:19.151Z,5688
2017-02-03T12:26:19.144Z,5860
2017-02-03T12:27:19.132Z,6052
2017-02-03T12:28:19.117Z,6272
2017-02-03T12:29:19.145Z,6500
2017-02-03T12:30:19.103Z,6724
2017-02-03T12:31:19.096Z,6936
2017-02-03T12:32:19.080Z,7132
2017-02-03T12:33:19.069Z,7320
2017-02-03T12:34:19.062Z,7496
2017-02-03T12:35:19.055Z,7664
2017-02-03T12:36:19.073Z,7828
2017-02-03T12:37:19.039Z,7984
2017-02-03T12:38:18.628Z,8132
2017-02-03T12:39:19.014Z,8288
2017-02-03T12:40:19.006Z,8460
2017-02-03T12:41:18.995Z,8636
2017-02-03T12:42:18.990Z,8784
2017-02-03T12:43:18.975Z,8896
2017-02-03T12:44:18.966Z,8968
2017-02-03T12:45:18.950Z,9012
2017-02-03T12:46:18.553Z,9032
2017-02-03T12:47:18.538Z,9036
2017-02-03T12:48:18.930Z,9016
2017-02-03T12:49:18.523Z,8964
2017-02-03T12:50:18.915Z,8884
2017-02-03T12:51:18.896Z,8792
2017-02-03T12:52:18.894Z,8696
2017-02-03T12:53:18.878Z,8592
2017-02-03T12:54:18.881Z,8456
2017-02-03T12:55:18.871Z,8312
2017-02-03T12:56:18.857Z,8168
2017-02-03T12:57:18.849Z,8020
2017-02-03T12:58:18.839Z,7876
2017-02-03T12:59:18.827Z,7720
2017-02-03T13:00:18.817Z,7556
2017-02-03T13:01:18.817Z,7408
2017-02-03T13:02:18.404Z,7280
2017-02-03T13:03:18.396Z,7148
2017-02-03T13:04:18.780Z,7044
2017-02-03T13:05:18.766Z,6952
2017-02-03T13:06:18.762Z,6900
2017-02-03T13:07:18.758Z,6860
2017-02-03T13:08:18.753Z,6848
2017-02-03T13:09:18.737Z,6852
2017-02-03T13:10:18.731Z,6844
2017-02-03T13:11:18.727Z,6820
2017-02-03T13:12:18.715Z,6784
2017-02-03T13:13:18.706Z,6756
2017-02-03T13:14:18.297Z,6708
2017-02-03T13:15:18.694Z,6656
2017-02-03T13:16:18.673Z,6576
2017-02-03T13:17:18.665Z,6516
2017-02-03T13:18:18.658Z,6480
2017-02-03T13:19:18.651Z,6456
2017-02-03T13:20:18.644Z,6388
2017-02-03T13:21:18.235Z,6300
2017-02-03T13:22:18.627Z,6196
2017-02-03T13:23:18.620Z,6100
2017-02-03T13:24:18.608Z,6044
2017-02-03T13:25:18.604Z,6016
2017-02-03T13:26:18.592Z,5976
2017-02-03T13:27:18.580Z,5932
2017-02-03T13:28:18.572Z,5928
2017-02-03T13:29:18.565Z,5952
2017-02-03T13:30:18.561Z,6020
2017-02-03T13:31:18.544Z,6076
2017-02-03T13:32:17.736Z,6096
2017-02-03T13:33:18.126Z,6100
2017-02-03T13:34:18.120Z,6156
2017-02-03T13:35:18.508Z,6212
2017-02-03T13:36:18.099Z,6216
2017-02-03T13:37:18.489Z,6180
2017-02-03T13:38:18.479Z,6112
2017-02-03T13:39:18.475Z,6008
2017-02-03T13:40:17.663Z,5864
2017-02-03T13:41:18.056Z,5708
2017-02-03T13:42:18.448Z,5572
2017-02-03T13:43:18.046Z,5468
2017-02-03T13:44:18.433Z,5396
2017-02-03T13:45:18.021Z,5332
2017-02-03T13:46:18.411Z,5244
2017-02-03T13:47:18.400Z,5140
2017-02-03T13:48:17.994Z,5040
2017-02-03T13:49:18.387Z,4952
2017-02-03T13:50:17.971Z,4860
2017-02-03T13:51:18.363Z,4796
2017-02-03T13:52:17.963Z,4748
2017-02-03T13:53:18.374Z,4712
2017-02-03T13:54:17.937Z,4668
2017-02-03T13:55:18.328Z,4640
2017-02-03T13:56:18.318Z,4616
2017-02-03T13:57:18.309Z,4600
2017-02-03T13:58:18.303Z,4580